createdAt,value
2023-05-08T00:03:29.211Z,17.60
2023-05-08T00:08:30.746Z,17.66
2023-05-08T00:13:32.068Z,17.51
2023-05-08T00:18:33.422Z,17.49
2023-05-08T00:23:34.852Z,17.42
2023-05-08T00:28:36.213Z,17.38
2023-05-08T00:33:37.571Z,17.26
2023-05-08T00:38:38.968Z,17.25
2023-05-08T00:43:40.496Z,17.14
2023-05-08T00:48:42.383Z,17.08
2023-05-08T00:53:45.251Z,17.04
2023-05-08T00:58:48.028Z,16.96
2023-05-08T01:03:49.914Z,16.92
2023-05-08T01:08:51.420Z,16.81
2023-05-08T01:14:13.435Z,16.79
2023-05-08T01:19:48.711Z,16.73
2023-05-08T01:25:09.446Z,16.73
2023-05-08T01:30:15.483Z,16.72
2023-05-08T01:35:27.577Z,16.75
2023-05-08T01:41:03.262Z,16.76
2023-05-08T01:46:09.651Z,16.74
2023-05-08T01:51:23.614Z,16.77
2023-05-08T01:56:28.554Z,16.71
2023-05-08T02:01:33.234Z,16.65
2023-05-08T02:06:36.662Z,16.59
2023-05-08T02:11:39.653Z,16.49
2023-05-08T02:16:43.267Z,16.49
2023-05-08T02:21:46.271Z,16.41
2023-05-08T02:26:50.000Z,16.38
2023-05-08T02:31:54.216Z,16.26
2023-05-08T02:36:55.937Z,16.29
2023-05-08T02:41:57.867Z,16.30
2023-05-08T02:47:25.784Z,16.32
2023-05-08T02:52:49.160Z,16.32
2023-05-08T02:58:04.008Z,16.21
2023-05-08T03:03:11.997Z,16.10
2023-05-08T03:08:20.754Z,16.20
2023-05-08T03:13:22.871Z,16.11
2023-05-08T03:18:32.156Z,16.06
2023-05-08T03:23:35.934Z,15.96
2023-05-08T03:28:38.523Z,15.93
2023-05-08T03:33:42.439Z,15.88
2023-05-08T03:38:44.159Z,15.94
2023-05-08T03:43:46.199Z,16.00
2023-05-08T03:48:50.272Z,16.02
2023-05-08T03:53:51.615Z,15.94
2023-05-08T03:59:09.612Z,15.73
2023-05-08T04:04:19.513Z,15.73
2023-05-08T04:09:30.571Z,15.72
2023-05-08T04:14:37.834Z,15.66
2023-05-08T04:19:43.103Z,15.73
2023-05-08T04:24:49.031Z,15.84
2023-05-08T04:29:50.473Z,15.86
2023-05-08T04:34:52.784Z,15.85
2023-05-08T04:39:54.303Z,15.81
2023-05-08T04:44:55.669Z,15.88
2023-05-08T04:49:57.430Z,15.86
2023-05-08T04:54:59.407Z,15.88
2023-05-08T05:00:00.803Z,15.80
2023-05-08T05:05:02.181Z,15.71
2023-05-08T05:10:04.202Z,15.78
2023-05-08T05:15:06.127Z,15.81
2023-05-08T05:20:08.852Z,15.79
2023-05-08T05:25:10.598Z,15.69
2023-05-08T05:30:12.467Z,15.64
2023-05-08T05:35:14.170Z,15.65
2023-05-08T05:40:15.637Z,15.70
2023-05-08T05:45:17.102Z,15.72
2023-05-08T05:50:18.796Z,15.74
2023-05-08T05:55:20.455Z,15.76
2023-05-08T06:00:22.203Z,15.86
2023-05-08T06:05:23.750Z,15.74
2023-05-08T06:10:25.276Z,15.77
2023-05-08T06:15:26.748Z,15.83
2023-05-08T06:20:28.260Z,15.86
2023-05-08T06:25:30.875Z,15.98
2023-05-08T06:30:32.280Z,16.01
2023-05-08T06:35:33.688Z,16.05
2023-05-08T06:40:35.069Z,15.98
2023-05-08T06:45:36.456Z,15.88
2023-05-08T06:50:39.289Z,15.72
2023-05-08T06:55:43.582Z,15.55
2023-05-08T07:00:44.943Z,15.56
2023-05-08T07:05:46.362Z,15.59
2023-05-08T07:10:47.680Z,15.52
2023-05-08T07:15:49.131Z,15.45
2023-05-08T07:20:50.557Z,15.53
2023-05-08T07:25:51.889Z,15.60
2023-05-08T07:30:53.234Z,15.73
2023-05-08T07:35:54.572Z,15.91
2023-05-08T07:40:57.564Z,16.08
2023-05-08T07:45:59.319Z,16.12
2023-05-08T07:51:00.795Z,16.33
2023-05-08T07:56:02.461Z,16.39
2023-05-08T08:01:03.950Z,16.49
2023-05-08T08:06:05.436Z,16.60
2023-05-08T08:11:07.560Z,16.78
2023-05-08T08:16:08.944Z,16.80
2023-05-08T08:21:10.310Z,16.92
2023-05-08T08:26:11.678Z,17.03
2023-05-08T08:31:13.206Z,17.13
2023-05-08T08:36:15.754Z,17.16
2023-05-08T08:41:17.210Z,17.27
2023-05-08T08:46:23.717Z,17.25
2023-05-08T08:51:31.819Z,17.25
2023-05-08T08:56:36.031Z,17.27
2023-05-08T09:01:41.867Z,17.38
2023-05-08T09:06:45.211Z,17.41
2023-05-08T09:11:46.818Z,17.33
2023-05-08T09:16:51.377Z,17.16
2023-05-08T09:21:52.965Z,17.34
2023-05-08T09:26:54.350Z,17.44
2023-05-08T09:31:56.111Z,17.53
2023-05-08T09:37:06.322Z,17.68
2023-05-08T09:42:07.679Z,17.87
2023-05-08T09:47:11.155Z,17.89
2023-05-08T09:52:15.845Z,17.94
2023-05-08T09:57:17.541Z,17.99
2023-05-08T10:02:20.221Z,17.98
2023-05-08T10:07:29.665Z,18.18
2023-05-08T10:12:32.008Z,18.31
2023-05-08T10:17:51.600Z,18.40
2023-05-08T10:22:55.625Z,18.56
2023-05-08T10:28:42.588Z,18.69
2023-05-08T10:33:46.498Z,18.90
2023-05-08T10:38:49.711Z,19.26
2023-05-08T10:43:51.937Z,19.28
2023-05-08T10:49:24.426Z,19.38
2023-05-08T10:54:48.069Z,19.66
2023-05-08T10:59:49.493Z,20.00
2023-05-08T11:04:51.208Z,20.25
2023-05-08T11:09:53.717Z,20.38
2023-05-08T11:15:07.053Z,20.39
2023-05-08T11:20:09.055Z,20.62
2023-05-08T11:25:10.856Z,20.92
2023-05-08T11:30:35.101Z,21.26
2023-05-08T11:35:54.669Z,21.45
2023-05-08T11:41:07.508Z,21.19
2023-05-08T11:46:17.436Z,21.35
2023-05-08T11:51:21.631Z,21.65
2023-05-08T11:56:23.050Z,21.70
2023-05-08T12:01:24.428Z,21.89
2023-05-08T12:06:27.599Z,21.93
2023-05-08T12:11:28.998Z,22.20
2023-05-08T12:16:30.442Z,22.16
2023-05-08T12:21:32.005Z,21.65
2023-05-08T12:26:40.130Z,21.61
2023-05-08T12:31:41.726Z,21.95
2023-05-08T12:36:43.259Z,22.03
2023-05-08T12:41:52.646Z,22.23
2023-05-08T12:46:56.200Z,22.55
2023-05-08T12:52:06.658Z,22.76
2023-05-08T12:57:12.222Z,23.09
2023-05-08T13:02:18.856Z,23.45
2023-05-08T13:07:20.367Z,23.72
2023-05-08T13:12:21.724Z,24.29
2023-05-08T13:17:23.142Z,24.69
2023-05-08T13:22:26.586Z,25.13
2023-05-08T13:27:28.293Z,25.49
2023-05-08T13:32:29.745Z,25.66
2023-05-08T13:37:31.104Z,25.84
2023-05-08T13:42:32.451Z,26.05
2023-05-08T13:47:33.993Z,25.33
2023-05-08T13:52:35.768Z,25.53
2023-05-08T13:57:37.420Z,25.73
2023-05-08T14:02:38.888Z,25.69
2023-05-08T14:07:40.755Z,25.41
2023-05-08T14:12:42.174Z,25.76
2023-05-08T14:17:43.683Z,25.86
2023-05-08T14:27:46.837Z,25.99
2023-05-08T14:32:48.642Z,25.59
2023-05-08T14:37:50.048Z,25.67
2023-05-08T14:42:51.491Z,25.77
2023-05-08T14:47:52.897Z,25.44
2023-05-08T14:52:54.494Z,25.21
2023-05-08T14:57:56.410Z,24.54
2023-05-08T15:02:57.895Z,24.53
2023-05-08T15:07:59.618Z,24.67
2023-05-08T15:13:01.149Z,24.31
2023-05-08T15:18:02.662Z,23.97
2023-05-08T15:23:04.509Z,24.45
2023-05-08T15:28:06.316Z,24.87
2023-05-08T15:33:07.686Z,25.08
2023-05-08T15:38:09.261Z,24.94
2023-05-08T15:43:10.726Z,24.99
2023-05-08T15:48:12.373Z,24.92
2023-05-08T15:53:14.181Z,24.94
2023-05-08T15:58:15.831Z,24.52
2023-05-08T16:03:17.455Z,24.64
2023-05-08T16:08:19.120Z,24.57
2023-05-08T16:13:21.036Z,24.50
2023-05-08T16:18:22.862Z,24.64
2023-05-08T16:23:24.481Z,24.73
2023-05-08T16:28:25.918Z,24.59
2023-05-08T16:33:27.335Z,24.44
2023-05-08T16:38:28.714Z,24.22
2023-05-08T16:43:30.438Z,24.18
2023-05-08T16:48:31.854Z,23.94
2023-05-08T16:53:33.196Z,23.86
2023-05-08T16:58:34.574Z,23.83
2023-05-08T17:03:36.249Z,23.77
2023-05-08T17:08:37.712Z,23.73
2023-05-08T17:13:39.079Z,23.75
2023-05-08T17:18:40.505Z,23.75
2023-05-08T17:23:41.943Z,23.62
2023-05-08T17:28:43.440Z,23.38
2023-05-08T17:33:45.024Z,23.37
2023-05-08T17:38:47.178Z,23.28
2023-05-08T17:43:48.579Z,23.25
2023-05-08T17:48:49.987Z,23.01
2023-05-08T17:53:52.980Z,22.78
2023-05-08T17:58:55.467Z,22.62
2023-05-08T18:03:56.903Z,22.30
2023-05-08T18:08:58.268Z,22.23
2023-05-08T18:13:59.607Z,22.11
2023-05-08T18:19:00.996Z,21.98
2023-05-08T18:24:02.513Z,21.82
2023-05-08T18:29:03.894Z,21.73
2023-05-08T18:34:05.262Z,21.56
2023-05-08T18:39:06.625Z,21.50
2023-05-08T18:44:09.228Z,21.41
2023-05-08T18:49:10.648Z,21.32
2023-05-08T18:54:12.010Z,21.20
2023-05-08T18:59:13.523Z,21.04
2023-05-08T19:04:15.135Z,20.81
2023-05-08T19:09:16.597Z,20.79
2023-05-08T19:14:17.926Z,20.78
2023-05-08T19:19:19.331Z,20.76
2023-05-08T19:24:23.923Z,20.66
2023-05-08T19:29:25.341Z,20.66
2023-05-08T19:34:26.820Z,20.62
2023-05-08T19:39:28.154Z,20.58
2023-05-08T19:44:31.425Z,20.56
2023-05-08T19:49:32.761Z,20.45
2023-05-08T19:54:34.157Z,20.41
2023-05-08T19:59:35.541Z,20.42
2023-05-08T20:04:48.699Z,20.37
2023-05-08T20:09:58.328Z,20.20
2023-05-08T20:14:59.689Z,20.10
2023-05-08T20:20:01.233Z,20.01
2023-05-08T20:25:04.424Z,19.91
2023-05-08T20:30:06.811Z,19.77
2023-05-08T20:35:08.807Z,19.70
2023-05-08T20:40:10.844Z,19.60
2023-05-08T20:45:12.557Z,19.53
2023-05-08T20:50:16.038Z,19.45
2023-05-08T20:55:17.685Z,19.37
2023-05-08T21:00:19.466Z,19.28
2023-05-08T21:05:20.859Z,19.22
2023-05-08T21:10:22.207Z,19.19
2023-05-08T21:15:24.236Z,19.13
2023-05-08T21:20:25.595Z,19.01
2023-05-08T21:25:26.992Z,18.94
2023-05-08T21:30:28.730Z,18.89
2023-05-08T21:35:30.207Z,18.59
2023-05-08T21:40:31.531Z,18.52
2023-05-08T21:45:33.154Z,18.57
2023-05-08T21:50:34.564Z,18.48
2023-05-08T21:55:36.050Z,18.42
2023-05-08T22:00:37.454Z,18.46
2023-05-08T22:05:38.801Z,18.50
2023-05-08T22:10:40.512Z,18.45
2023-05-08T22:15:42.415Z,18.39
2023-05-08T22:20:43.863Z,18.35
2023-05-08T22:25:45.227Z,18.34
2023-05-08T22:30:46.624Z,18.23
2023-05-08T22:35:47.955Z,18.15
2023-05-08T22:40:49.391Z,18.04
2023-05-08T22:45:50.865Z,17.93
2023-05-08T22:50:52.549Z,17.85
2023-05-08T22:55:53.917Z,17.73
2023-05-08T23:00:55.746Z,17.61
2023-05-08T23:05:57.213Z,17.73
2023-05-08T23:10:58.556Z,17.81
2023-05-08T23:15:59.929Z,17.87
2023-05-08T23:21:08.212Z,17.82
2023-05-08T23:26:09.622Z,17.75
2023-05-08T23:31:11.081Z,17.82
2023-05-08T23:36:12.485Z,17.89
2023-05-08T23:41:14.061Z,17.92
2023-05-08T23:46:15.812Z,18.03
2023-05-08T23:51:17.211Z,18.08
2023-05-08T23:56:18.612Z,18.00
